createdAt,value
2022-11-30T00:00:02.623Z,1.73
2022-11-30T00:02:30.161Z,1.90
2022-11-30T00:04:56.633Z,1.73
2022-11-30T00:07:23.212Z,1.98
2022-11-30T00:09:49.680Z,1.52
2022-11-30T00:12:16.147Z,2.40
2022-11-30T00:14:42.626Z,2.17
2022-11-30T00:17:09.127Z,2.42
2022-11-30T00:19:35.635Z,1.75
2022-11-30T00:22:02.089Z,1.92
2022-11-30T00:24:28.521Z,2.72
2022-11-30T00:26:55.001Z,1.77
2022-11-30T00:29:21.432Z,2.40
2022-11-30T00:31:47.886Z,1.70
2022-11-30T00:34:14.514Z,2.30
2022-11-30T00:36:40.992Z,1.58
2022-11-30T00:39:07.558Z,2.20
2022-11-30T00:41:34.044Z,2.10
2022-11-30T00:44:00.708Z,2.65
2022-11-30T00:46:27.371Z,1.75
2022-11-30T00:48:53.971Z,1.27
2022-11-30T00:51:20.549Z,1.70
2022-11-30T00:53:47.903Z,2.35
2022-11-30T00:56:14.639Z,2.70
2022-11-30T00:58:41.212Z,2.50
2022-11-30T01:01:08.240Z,2.03
2022-11-30T01:03:34.947Z,2.20
2022-11-30T01:06:02.686Z,2.05
2022-11-30T01:08:29.345Z,2.38
2022-11-30T01:10:57.882Z,3.28
2022-11-30T01:13:24.514Z,2.83
2022-11-30T01:15:51.045Z,3.10
2022-11-30T01:18:17.789Z,2.63
2022-11-30T01:20:44.385Z,2.40
2022-11-30T01:23:11.288Z,2.70
2022-11-30T01:25:37.946Z,2.00
2022-11-30T01:28:04.612Z,2.70
2022-11-30T01:30:31.377Z,2.22
2022-11-30T01:33:01.714Z,2.40
2022-11-30T01:35:28.325Z,2.55
2022-11-30T01:37:54.778Z,2.95
2022-11-30T01:40:21.252Z,2.45
2022-11-30T01:42:48.058Z,2.45
2022-11-30T01:45:15.072Z,2.90
2022-11-30T01:47:43.925Z,2.75
2022-11-30T01:50:14.660Z,2.63
2022-11-30T01:52:43.204Z,2.25
2022-11-30T01:55:19.078Z,3.00
2022-11-30T01:57:49.120Z,2.70
2022-11-30T02:00:16.174Z,2.40
2022-11-30T02:02:48.834Z,2.55
2022-11-30T02:05:16.566Z,2.65
2022-11-30T02:07:43.252Z,3.05
2022-11-30T02:10:14.062Z,2.22
2022-11-30T02:12:49.867Z,3.15
2022-11-30T02:15:20.379Z,2.08
2022-11-30T02:18:07.083Z,3.58
2022-11-30T02:20:49.741Z,2.90
2022-11-30T02:23:19.357Z,2.20
2022-11-30T02:26:05.399Z,2.28
2022-11-30T02:28:50.736Z,2.60
2022-11-30T02:31:20.425Z,2.60
2022-11-30T02:33:47.817Z,2.30
2022-11-30T02:36:14.430Z,2.30
2022-11-30T02:38:41.606Z,2.05
2022-11-30T02:41:08.085Z,2.53
2022-11-30T02:43:35.398Z,2.97
2022-11-30T02:46:11.034Z,2.35
2022-11-30T02:48:50.540Z,3.03
2022-11-30T02:51:21.582Z,2.30
2022-11-30T02:53:48.336Z,2.25
2022-11-30T02:56:14.868Z,2.53
2022-11-30T02:58:41.509Z,2.70
2022-11-30T03:01:08.285Z,2.67
2022-11-30T03:03:34.794Z,2.40
2022-11-30T03:06:01.274Z,2.33
2022-11-30T03:08:27.809Z,2.53
2022-11-30T03:10:54.277Z,2.35
2022-11-30T03:13:20.738Z,2.45
2022-11-30T03:15:47.994Z,2.72
2022-11-30T03:18:14.774Z,2.85
2022-11-30T03:20:44.301Z,2.83
2022-11-30T03:23:10.792Z,2.92
2022-11-30T03:25:37.297Z,2.72
2022-11-30T03:28:04.314Z,2.75
2022-11-30T03:30:30.807Z,3.65
2022-11-30T03:32:57.286Z,2.13
2022-11-30T03:35:24.641Z,2.00
2022-11-30T03:37:51.115Z,3.00
2022-11-30T03:40:17.613Z,3.10
2022-11-30T03:42:44.156Z,2.40
2022-11-30T03:45:10.875Z,2.90
2022-11-30T03:47:37.531Z,3.42
2022-11-30T03:50:04.080Z,2.45
2022-11-30T03:52:30.557Z,3.00
2022-11-30T03:54:58.576Z,2.97
2022-11-30T03:57:25.056Z,3.38
2022-11-30T03:59:51.510Z,2.90
2022-11-30T04:02:18.047Z,2.55
2022-11-30T04:04:44.768Z,2.95
2022-11-30T04:07:11.469Z,2.97
2022-11-30T04:09:37.939Z,3.10
2022-11-30T04:12:04.487Z,3.47
2022-11-30T04:14:30.966Z,3.28
2022-11-30T04:16:57.462Z,2.80
2022-11-30T04:19:23.951Z,3.15
2022-11-30T04:21:51.583Z,3.60
2022-11-30T04:24:18.022Z,3.72
2022-11-30T04:26:46.077Z,3.38
2022-11-30T04:29:12.562Z,3.00
2022-11-30T04:31:39.044Z,3.53
2022-11-30T04:34:05.497Z,3.15
2022-11-30T04:36:32.030Z,2.90
2022-11-30T04:38:58.480Z,4.32
2022-11-30T04:41:24.938Z,3.22
2022-11-30T04:43:51.441Z,3.63
2022-11-30T04:46:17.976Z,3.22
2022-11-30T04:48:44.468Z,3.67
2022-11-30T04:51:10.963Z,3.25
2022-11-30T04:53:37.912Z,3.45
2022-11-30T04:56:08.788Z,3.17
2022-11-30T04:58:35.744Z,3.55
2022-11-30T05:01:02.243Z,3.75
2022-11-30T05:03:28.728Z,3.25
2022-11-30T05:05:55.231Z,2.67
2022-11-30T05:08:21.796Z,3.85
2022-11-30T05:10:53.278Z,3.42
2022-11-30T05:13:20.088Z,4.65
2022-11-30T05:15:47.096Z,3.03
2022-11-30T05:18:15.857Z,3.58
2022-11-30T05:20:46.445Z,3.58
2022-11-30T05:23:12.926Z,3.42
2022-11-30T05:25:39.400Z,4.35
2022-11-30T05:28:05.935Z,3.65
2022-11-30T05:30:32.390Z,4.35
2022-11-30T05:32:58.874Z,4.22
2022-11-30T05:35:25.414Z,4.78
2022-11-30T05:37:51.863Z,4.05
2022-11-30T05:40:18.512Z,4.97
2022-11-30T05:42:44.957Z,3.45
2022-11-30T05:45:11.658Z,5.82
2022-11-30T05:47:38.128Z,4.55
2022-11-30T05:50:05.024Z,4.32
2022-11-30T05:52:31.661Z,4.88
2022-11-30T05:54:59.511Z,5.50
2022-11-30T05:57:26.056Z,4.55
2022-11-30T05:59:52.599Z,4.57
2022-11-30T06:02:23.712Z,5.78
2022-11-30T06:04:53.117Z,5.47
2022-11-30T06:07:19.639Z,5.10
2022-11-30T06:09:46.163Z,4.95
2022-11-30T06:12:12.634Z,5.93
2022-11-30T06:14:39.120Z,5.43
2022-11-30T06:17:05.639Z,4.32
2022-11-30T06:19:32.239Z,5.03
2022-11-30T06:21:58.716Z,5.00
2022-11-30T06:24:25.210Z,5.55
2022-11-30T06:26:51.709Z,5.13
2022-11-30T06:29:18.182Z,4.57
2022-11-30T06:31:44.694Z,3.85
2022-11-30T06:34:11.227Z,4.03
2022-11-30T06:36:37.892Z,3.80
2022-11-30T06:39:04.631Z,3.97
2022-11-30T06:41:31.069Z,3.83
2022-11-30T06:43:57.555Z,4.65
2022-11-30T06:46:24.180Z,3.63
2022-11-30T06:48:50.971Z,4.35
2022-11-30T06:51:17.770Z,4.05
2022-11-30T06:53:44.986Z,5.05
2022-11-30T06:56:11.846Z,4.45
2022-11-30T06:58:39.618Z,4.50
2022-11-30T07:01:07.047Z,4.07
2022-11-30T07:03:33.729Z,4.35
2022-11-30T07:06:00.422Z,4.53
2022-11-30T07:08:26.873Z,5.45
2022-11-30T07:10:53.328Z,4.53
2022-11-30T07:13:19.914Z,4.82
2022-11-30T07:15:46.349Z,4.90
2022-11-30T07:18:12.869Z,5.35
2022-11-30T07:20:39.690Z,4.85
2022-11-30T07:23:24.795Z,4.90
2022-11-30T07:26:07.067Z,5.93
2022-11-30T07:28:34.474Z,5.78
2022-11-30T07:31:00.938Z,4.68
2022-11-30T07:33:27.525Z,5.05
2022-11-30T07:35:54.647Z,5.43
2022-11-30T07:38:21.123Z,5.60
2022-11-30T07:40:47.616Z,6.00
2022-11-30T07:43:14.052Z,5.05
2022-11-30T07:45:40.605Z,5.25
2022-11-30T07:48:07.115Z,4.55
2022-11-30T07:50:33.563Z,4.82
2022-11-30T07:53:00.033Z,4.72
2022-11-30T07:55:26.487Z,4.72
2022-11-30T07:57:53.178Z,5.00
2022-11-30T08:00:19.628Z,4.43
2022-11-30T08:02:49.737Z,3.70
2022-11-30T08:05:16.448Z,3.72
2022-11-30T08:07:43.014Z,3.50
2022-11-30T08:10:09.769Z,3.75
2022-11-30T08:12:36.259Z,3.80
2022-11-30T08:15:20.415Z,3.88
2022-11-30T08:17:50.283Z,4.05
2022-11-30T08:20:16.888Z,3.78
2022-11-30T08:22:43.455Z,3.38
2022-11-30T08:25:09.971Z,4.03
2022-11-30T08:27:36.459Z,4.50
2022-11-30T08:30:03.029Z,4.78
2022-11-30T08:32:29.502Z,4.80
2022-11-30T08:34:56.006Z,4.30
2022-11-30T08:37:22.457Z,5.75
2022-11-30T08:39:48.918Z,3.92
2022-11-30T08:42:15.450Z,5.07
2022-11-30T08:44:41.908Z,5.25
2022-11-30T08:47:08.567Z,4.85
2022-11-30T08:49:35.077Z,3.92
2022-11-30T08:52:18.194Z,5.15
2022-11-30T08:54:46.622Z,3.42
2022-11-30T08:57:14.090Z,3.80
2022-11-30T08:59:40.530Z,3.20
2022-11-30T09:02:07.148Z,4.18
2022-11-30T09:04:33.680Z,3.38
2022-11-30T09:07:01.076Z,5.32
2022-11-30T09:09:27.671Z,4.70
2022-11-30T09:11:54.136Z,3.95
2022-11-30T09:14:20.598Z,5.25
2022-11-30T09:16:47.084Z,4.90
2022-11-30T09:19:13.566Z,4.80
2022-11-30T09:21:40.166Z,5.13
2022-11-30T09:24:06.729Z,4.75
2022-11-30T09:26:33.202Z,5.07
2022-11-30T09:29:00.108Z,4.22
2022-11-30T09:31:27.251Z,4.97
2022-11-30T09:33:55.893Z,3.97
2022-11-30T09:36:22.954Z,4.30
2022-11-30T09:38:49.702Z,4.65
2022-11-30T09:41:22.225Z,4.97
2022-11-30T09:44:08.845Z,4.85
2022-11-30T09:46:41.881Z,5.47
2022-11-30T09:49:27.072Z,6.18
2022-11-30T09:51:55.270Z,5.13
2022-11-30T09:54:31.247Z,6.15
2022-11-30T09:56:57.746Z,5.13
2022-11-30T09:59:32.651Z,5.75
2022-11-30T10:02:07.006Z,5.85
2022-11-30T10:04:33.582Z,5.07
2022-11-30T10:07:12.374Z,4.53
2022-11-30T10:10:30.268Z,5.38
2022-11-30T10:13:08.510Z,6.03
2022-11-30T10:15:44.442Z,6.05
2022-11-30T10:18:23.234Z,6.43
2022-11-30T10:21:02.740Z,6.30
2022-11-30T10:23:35.304Z,5.03
2022-11-30T10:26:01.713Z,6.53
2022-11-30T10:28:52.378Z,6.65
2022-11-30T10:31:28.630Z,6.63
2022-11-30T10:33:58.960Z,5.70
2022-11-30T10:36:33.439Z,7.13
2022-11-30T10:39:01.812Z,7.18
2022-11-30T10:41:37.738Z,7.47
2022-11-30T10:44:10.253Z,5.65
2022-11-30T10:46:38.645Z,6.20
2022-11-30T10:49:08.037Z,8.18
2022-11-30T10:51:37.107Z,6.13
2022-11-30T10:54:12.353Z,5.45
2022-11-30T10:56:38.999Z,6.82
2022-11-30T10:59:17.160Z,7.25
2022-11-30T11:01:44.198Z,7.35
2022-11-30T11:04:16.799Z,7.55
2022-11-30T11:06:47.588Z,8.52
2022-11-30T11:09:45.887Z,7.00
2022-11-30T11:12:15.644Z,6.88
2022-11-30T11:14:42.206Z,7.53
2022-11-30T11:17:17.534Z,7.22
2022-11-30T11:19:44.513Z,9.15
2022-11-30T11:22:10.995Z,8.63
2022-11-30T11:24:37.457Z,7.55
2022-11-30T11:27:04.194Z,6.78
2022-11-30T11:29:32.203Z,10.50
2022-11-30T11:32:19.207Z,9.68
2022-11-30T11:34:50.805Z,9.40
2022-11-30T11:37:20.831Z,10.32
2022-11-30T11:40:05.735Z,9.40
2022-11-30T11:42:35.265Z,8.40
2022-11-30T11:45:02.636Z,8.43
2022-11-30T11:47:32.621Z,10.05
2022-11-30T11:50:06.670Z,8.90
2022-11-30T11:52:33.117Z,9.32
2022-11-30T11:55:02.758Z,10.77
2022-11-30T11:57:45.128Z,8.30
2022-11-30T12:00:16.161Z,9.20
2022-11-30T12:03:04.928Z,9.30
2022-11-30T12:05:33.654Z,8.68
2022-11-30T12:08:05.661Z,9.30
2022-11-30T12:10:54.292Z,7.93
2022-11-30T12:13:22.432Z,8.75
2022-11-30T12:16:21.510Z,8.40
2022-11-30T12:19:06.665Z,7.40
2022-11-30T12:21:39.187Z,7.88
2022-11-30T12:24:14.682Z,8.13
2022-11-30T12:26:44.598Z,9.02
2022-11-30T12:29:23.438Z,10.20
2022-11-30T12:32:05.811Z,9.45
2022-11-30T12:34:38.438Z,7.95
2022-11-30T12:37:10.734Z,7.15
2022-11-30T12:39:46.682Z,7.53
2022-11-30T12:42:32.287Z,8.82
2022-11-30T12:45:17.558Z,8.95
2022-11-30T12:47:50.161Z,7.50
2022-11-30T12:50:25.878Z,7.43
2022-11-30T12:53:07.609Z,7.25
2022-11-30T12:55:40.221Z,7.40
2022-11-30T12:58:12.975Z,7.15
2022-11-30T13:00:45.707Z,7.32
2022-11-30T13:03:42.716Z,8.02
2022-11-30T13:06:12.076Z,9.05
2022-11-30T13:08:44.969Z,8.85
2022-11-30T13:11:13.763Z,8.33
2022-11-30T13:13:45.887Z,7.45
2022-11-30T13:16:12.498Z,8.20
2022-11-30T13:18:39.286Z,7.85
2022-11-30T13:21:11.847Z,7.90
2022-11-30T13:23:57.029Z,8.63
2022-11-30T13:26:26.524Z,8.90
2022-11-30T13:28:58.029Z,6.57
2022-11-30T13:31:47.672Z,6.53
2022-11-30T13:34:27.957Z,6.55
2022-11-30T13:37:02.482Z,7.13
2022-11-30T13:39:30.381Z,6.30
2022-11-30T13:42:02.905Z,7.50
2022-11-30T13:44:33.782Z,6.50
2022-11-30T13:47:01.769Z,6.03
2022-11-30T13:49:30.040Z,7.32
2022-11-30T13:52:21.648Z,8.05
2022-11-30T13:54:47.796Z,6.55
2022-11-30T13:57:17.827Z,8.07
2022-11-30T13:59:47.433Z,7.55
2022-11-30T14:02:44.488Z,9.75
2022-11-30T14:05:17.081Z,8.90
2022-11-30T14:08:06.685Z,8.77
2022-11-30T14:10:33.358Z,8.30
2022-11-30T14:13:01.203Z,12.30
2022-11-30T14:15:50.496Z,9.60
2022-11-30T14:18:19.871Z,9.40
2022-11-30T14:20:46.360Z,10.68
2022-11-30T14:23:18.868Z,10.18
2022-11-30T14:25:51.116Z,10.00
2022-11-30T14:28:19.272Z,9.80
2022-11-30T14:30:46.433Z,11.38
2022-11-30T14:33:25.127Z,12.25
2022-11-30T14:35:55.606Z,11.30
2022-11-30T14:38:28.023Z,11.18
2022-11-30T14:40:54.653Z,13.13
2022-11-30T14:43:21.373Z,12.52
2022-11-30T14:46:07.226Z,13.07
2022-11-30T14:48:36.728Z,13.63
2022-11-30T14:51:06.082Z,12.32
2022-11-30T14:53:35.613Z,11.80
2022-11-30T14:56:12.282Z,12.18
2022-11-30T14:58:51.181Z,12.55
2022-11-30T15:01:19.685Z,12.90
2022-11-30T15:03:47.807Z,12.20
2022-11-30T15:06:15.186Z,12.55
2022-11-30T15:08:42.827Z,10.82
2022-11-30T15:11:10.781Z,12.10
2022-11-30T15:13:47.589Z,9.70
2022-11-30T15:16:18.730Z,11.63
2022-11-30T15:18:45.221Z,11.48
2022-11-30T15:21:30.697Z,11.98
2022-11-30T15:23:58.275Z,10.18
2022-11-30T15:26:57.171Z,11.63
2022-11-30T15:29:23.615Z,10.52
2022-11-30T15:31:51.423Z,8.60
2022-11-30T15:34:19.287Z,10.75
2022-11-30T15:36:46.329Z,10.40
2022-11-30T15:39:21.010Z,12.95
2022-11-30T15:41:52.744Z,11.07
2022-11-30T15:44:37.625Z,15.18
2022-11-30T15:47:05.745Z,13.13
2022-11-30T15:49:32.942Z,14.32
2022-11-30T15:52:15.875Z,11.50
2022-11-30T15:54:58.943Z,12.18
2022-11-30T15:57:26.498Z,10.98
2022-11-30T16:00:19.063Z,9.35
2022-11-30T16:02:45.601Z,10.07
2022-11-30T16:05:14.445Z,9.75
2022-11-30T16:07:52.788Z,8.68
2022-11-30T16:10:28.196Z,10.40
2022-11-30T16:12:55.423Z,9.23
2022-11-30T16:15:23.909Z,10.85
2022-11-30T16:17:51.077Z,9.77
2022-11-30T16:20:17.577Z,13.30
2022-11-30T16:22:44.948Z,11.63
2022-11-30T16:25:13.062Z,10.60
2022-11-30T16:27:39.525Z,11.48
2022-11-30T16:30:06.269Z,10.45
2022-11-30T16:32:32.705Z,10.50
2022-11-30T16:34:59.214Z,9.50
2022-11-30T16:37:25.637Z,9.60
2022-11-30T16:39:52.119Z,8.98
2022-11-30T16:42:18.599Z,10.80
2022-11-30T16:44:45.037Z,11.23
2022-11-30T16:47:11.490Z,9.95
2022-11-30T16:49:37.963Z,10.43
2022-11-30T16:52:04.492Z,11.88
2022-11-30T16:54:31.053Z,10.73
2022-11-30T16:56:57.557Z,11.50
2022-11-30T16:59:24.014Z,13.48
2022-11-30T17:01:53.025Z,12.05
2022-11-30T17:04:20.573Z,11.95
2022-11-30T17:06:50.635Z,10.13
2022-11-30T17:09:17.968Z,10.52
2022-11-30T17:11:45.571Z,11.10
2022-11-30T17:14:12.649Z,10.65
2022-11-30T17:16:39.211Z,11.55
2022-11-30T17:19:05.734Z,10.27
2022-11-30T17:21:33.846Z,11.57
2022-11-30T17:24:00.753Z,10.55
2022-11-30T17:26:27.769Z,11.98
2022-11-30T17:28:54.293Z,11.73
2022-11-30T17:31:21.127Z,12.55
2022-11-30T17:33:48.485Z,12.27
2022-11-30T17:36:15.954Z,11.57
2022-11-30T17:38:44.277Z,12.23
2022-11-30T17:41:18.594Z,10.77
2022-11-30T17:43:45.967Z,13.65
2022-11-30T17:46:15.754Z,12.95
2022-11-30T17:48:42.744Z,11.25
2022-11-30T17:51:09.951Z,11.55
2022-11-30T17:53:40.024Z,12.43
2022-11-30T17:56:10.836Z,12.70
2022-11-30T17:58:42.962Z,11.50
2022-11-30T18:01:30.798Z,10.60
2022-11-30T18:03:58.108Z,10.10
2022-11-30T18:06:24.807Z,9.60
2022-11-30T18:08:51.361Z,9.35
2022-11-30T18:11:22.121Z,11.00
2022-11-30T18:13:50.097Z,11.63
2022-11-30T18:16:18.357Z,10.43
2022-11-30T18:18:48.030Z,11.15
2022-11-30T18:21:15.919Z,9.98
2022-11-30T18:23:42.391Z,9.75
2022-11-30T18:26:11.602Z,11.13
2022-11-30T18:28:38.111Z,13.25
2022-11-30T18:31:06.628Z,10.38
2022-11-30T18:33:33.696Z,11.93
2022-11-30T18:36:01.070Z,10.30
2022-11-30T18:38:29.695Z,10.05
2022-11-30T18:40:59.306Z,10.45
2022-11-30T18:43:25.886Z,11.30
2022-11-30T18:45:52.395Z,12.13
2022-11-30T18:48:18.933Z,12.27
2022-11-30T18:50:45.382Z,10.10
2022-11-30T18:53:16.666Z,11.88
2022-11-30T18:55:44.781Z,10.53
2022-11-30T18:58:11.240Z,10.30
2022-11-30T19:00:37.754Z,10.55
2022-11-30T19:03:04.273Z,10.77
2022-11-30T19:05:34.992Z,10.23
2022-11-30T19:08:03.958Z,11.52
2022-11-30T19:10:34.529Z,10.15
2022-11-30T19:13:01.745Z,17.58
2022-11-30T19:15:28.190Z,33.13
2022-11-30T19:17:54.982Z,83.90
2022-11-30T19:20:21.974Z,66.60
2022-11-30T19:22:48.554Z,28.73
2022-11-30T19:25:18.969Z,19.55
2022-11-30T19:27:45.779Z,23.77
2022-11-30T19:30:12.486Z,16.50
2022-11-30T19:32:38.970Z,15.43
2022-11-30T19:35:05.682Z,22.48
2022-11-30T19:37:32.142Z,19.15
2022-11-30T19:39:58.581Z,16.85
2022-11-30T19:42:25.072Z,12.80
2022-11-30T19:44:51.536Z,10.95
2022-11-30T19:47:18.063Z,10.75
2022-11-30T19:49:45.776Z,12.38
2022-11-30T19:52:12.260Z,14.25
2022-11-30T19:54:38.736Z,12.68
2022-11-30T19:57:05.201Z,13.52
2022-11-30T19:59:31.647Z,11.98
2022-11-30T20:01:58.205Z,10.70
2022-11-30T20:04:24.745Z,12.02
2022-11-30T20:06:51.250Z,11.98
2022-11-30T20:09:17.734Z,12.77
2022-11-30T20:11:44.226Z,12.82
2022-11-30T20:14:17.121Z,12.55
2022-11-30T20:16:43.626Z,11.63
2022-11-30T20:19:10.970Z,11.70
2022-11-30T20:21:37.439Z,11.38
2022-11-30T20:24:06.226Z,12.27
2022-11-30T20:26:33.956Z,11.70
2022-11-30T20:29:01.265Z,12.02
2022-11-30T20:31:28.696Z,10.10
2022-11-30T20:33:55.234Z,10.95
2022-11-30T20:36:21.878Z,99.72
2022-11-30T20:38:48.698Z,24.55
2022-11-30T20:41:19.645Z,18.80
2022-11-30T20:43:46.534Z,12.45
2022-11-30T20:46:29.473Z,16.17
2022-11-30T20:48:56.572Z,13.05
2022-11-30T20:51:32.500Z,14.00
2022-11-30T20:54:01.150Z,11.48
2022-11-30T20:56:27.727Z,10.55
2022-11-30T20:58:54.274Z,11.07
2022-11-30T21:01:21.660Z,7.72
2022-11-30T21:03:48.474Z,7.40
2022-11-30T21:06:15.391Z,9.70
2022-11-30T21:08:41.941Z,7.90
2022-11-30T21:11:11.263Z,8.13
2022-11-30T21:13:38.309Z,9.88
2022-11-30T21:16:07.205Z,8.65
2022-11-30T21:18:34.585Z,12.88
2022-11-30T21:21:02.857Z,7.03
2022-11-30T21:23:29.433Z,8.23
2022-11-30T21:25:56.023Z,7.63
2022-11-30T21:28:22.558Z,7.50
2022-11-30T21:30:49.062Z,7.05
2022-11-30T21:33:15.585Z,7.40
2022-11-30T21:35:42.054Z,7.40
2022-11-30T21:38:08.599Z,7.47
2022-11-30T21:40:35.147Z,8.57
2022-11-30T21:43:01.647Z,8.90
2022-11-30T21:45:28.431Z,7.22
2022-11-30T21:47:55.034Z,7.65
2022-11-30T21:50:26.898Z,7.40
2022-11-30T21:52:53.774Z,5.68
2022-11-30T21:55:20.256Z,5.95
2022-11-30T21:57:46.732Z,5.70
2022-11-30T22:00:14.486Z,7.05
2022-11-30T22:02:41.129Z,6.80
2022-11-30T22:05:07.834Z,6.90
2022-11-30T22:07:34.407Z,6.35
2022-11-30T22:10:00.869Z,5.88
2022-11-30T22:12:27.402Z,5.75
2022-11-30T22:14:53.881Z,5.70
2022-11-30T22:17:20.447Z,5.47
2022-11-30T22:19:47.391Z,5.97
2022-11-30T22:22:14.320Z,5.30
2022-11-30T22:24:40.801Z,6.15
2022-11-30T22:27:07.294Z,6.22
2022-11-30T22:29:33.752Z,6.15
2022-11-30T22:32:00.278Z,6.32
2022-11-30T22:34:26.895Z,5.30
2022-11-30T22:36:53.391Z,4.88
2022-11-30T22:39:20.975Z,4.93
2022-11-30T22:41:54.224Z,4.85
2022-11-30T22:44:21.998Z,4.30
2022-11-30T22:46:48.551Z,4.10
2022-11-30T22:49:20.689Z,4.95
2022-11-30T22:51:48.506Z,4.00
2022-11-30T22:54:15.032Z,5.60
2022-11-30T22:56:41.715Z,4.68
2022-11-30T22:59:10.358Z,4.95
2022-11-30T23:01:39.043Z,4.32
2022-11-30T23:04:13.214Z,4.10
2022-11-30T23:06:40.411Z,5.30
2022-11-30T23:09:08.711Z,4.68
2022-11-30T23:11:35.276Z,4.15
2022-11-30T23:14:05.464Z,4.22
2022-11-30T23:16:32.175Z,5.10
2022-11-30T23:19:00.443Z,3.65
2022-11-30T23:21:30.134Z,4.03
2022-11-30T23:23:58.442Z,3.60
2022-11-30T23:26:26.436Z,2.92
2022-11-30T23:28:53.769Z,3.00
2022-11-30T23:31:34.145Z,3.42
2022-11-30T23:34:02.915Z,3.38
2022-11-30T23:36:29.453Z,2.80
2022-11-30T23:39:00.189Z,3.30
2022-11-30T23:41:27.018Z,2.67
2022-11-30T23:43:53.614Z,2.40
2022-11-30T23:46:20.132Z,3.70
2022-11-30T23:48:46.750Z,2.45
2022-11-30T23:51:13.240Z,2.53
2022-11-30T23:53:39.770Z,3.22
2022-11-30T23:56:07.760Z,2.55
2022-11-30T23:58:34.474Z,2.38
